Portada
METAR-TAF:

METAR-TAF

Aeropuertos :

Mont-De-Marsan, Francia

latitud: 43-55N, longitud: 000-30W, altitud: 62 m

Observación

El informe se hizo hace 35 minutos, a las 19:00 UTC
Viento 2 kt con dirección variable
Temperatura 21°C
Humedad 64%
Presión 1012 hPa
Visibilidad 10 km o más
sin nubes por debajo de 1500 m y sin presencia de cumulonimbus.

METAR: LFBM 201900Z AUTO VRB02KT CAVOK 21/14 Q1012 TEMPO SHRA SCT025TCU

Hora: 21:35 (19:35 UTC)

Pronóstico

El informe se hizo hace 5 horas y 35 minutos, a las 14:00 UTC
Pronóstico válido del 20 a las 15 UTC al 21 a las 15 UTC
Viento 10 kt del sur
Visibilidad 10 km o más
sin nubes por debajo de 1500 m y sin presencia de cumulonimbus.
Temporalmente
del 20 a las 18 UTC al 20 a las 21 UTC
Nubes dispersas a una altura de 2500 ft, Cumulus congestus.
chaparrones de lluvia

TAF: LFBM 201400Z 2015/2115 18010KT CAVOK TEMPO 2018/2021 SHRA SCT025TCU

Observaciones y pronósticos meteorológicos de más de 4000 aeropuertos (mensajes METAR y TAF).

Los puntos amarillos y rojos representan las estaciones disponibles.

Ponga el ratón en el punto deseado para ver el nombre de la estación.

Haga clic para ver las observaciones y los pronósticos meteorológicos.

Para cambiar el mapa : haga clic en los botones verdes con una cruz de color negro para hacer un zoom, en el botón verde con un guión para alejar o en las flechas verdes para mapas adyacentes.


METAR-TAF: